createdAt,value
2023-04-26T00:01:58.810Z,101278.06
2023-04-26T00:04:25.900Z,101282.19
2023-04-26T00:06:52.832Z,101281.81
2023-04-26T00:09:19.705Z,101290.09
2023-04-26T00:11:46.804Z,101294.22
2023-04-26T00:14:14.094Z,101300.75
2023-04-26T00:16:40.950Z,101283.41
2023-04-26T00:19:07.717Z,101286.91
2023-04-26T00:21:34.492Z,101292.28
2023-04-26T00:24:01.255Z,101296.38
2023-04-26T00:26:28.002Z,101295.34
2023-04-26T00:28:55.000Z,101294.50
2023-04-26T00:31:21.892Z,101293.28
2023-04-26T00:33:48.753Z,101292.63
2023-04-26T00:36:19.283Z,101289.59
2023-04-26T00:38:46.784Z,101286.91
2023-04-26T00:41:14.249Z,101282.78
2023-04-26T00:43:41.495Z,101278.22
2023-04-26T00:46:09.798Z,101275.34
2023-04-26T00:48:37.535Z,101269.56
2023-04-26T00:51:05.843Z,101275.13
2023-04-26T00:53:34.350Z,101277.63
2023-04-26T00:56:02.244Z,101274.50
2023-04-26T00:58:30.056Z,101282.72
2023-04-26T01:00:56.967Z,101275.72
2023-04-26T01:03:24.296Z,101276.13
2023-04-26T01:05:51.286Z,101280.47
2023-04-26T01:08:21.068Z,101288.72
2023-04-26T01:10:49.105Z,101286.63
2023-04-26T01:13:17.146Z,101280.56
2023-04-26T01:15:46.302Z,101275.03
2023-04-26T01:18:16.209Z,101272.16
2023-04-26T01:20:43.563Z,101268.47
2023-04-26T01:23:11.765Z,101276.53
2023-04-26T01:25:39.287Z,101280.22
2023-04-26T01:28:06.299Z,101281.88
2023-04-26T01:30:33.150Z,101274.44
2023-04-26T01:33:03.203Z,101269.25
2023-04-26T01:35:30.075Z,101272.56
2023-04-26T01:37:56.904Z,101266.19
2023-04-26T01:40:23.658Z,101259.34
2023-04-26T01:42:50.444Z,101265.56
2023-04-26T01:45:17.583Z,101266.19
2023-04-26T01:48:03.022Z,101274.22
2023-04-26T01:50:32.146Z,101272.16
2023-04-26T01:52:58.872Z,101266.81
2023-04-26T01:55:25.673Z,101267.00
2023-04-26T01:57:52.499Z,101259.78
2023-04-26T02:00:20.384Z,101269.47
2023-04-26T02:02:49.406Z,101263.28
2023-04-26T02:05:16.283Z,101255.25
2023-04-26T02:07:43.097Z,101257.91
2023-04-26T02:10:10.043Z,101265.75
2023-04-26T02:12:36.916Z,101265.97
2023-04-26T02:15:03.915Z,101255.03
2023-04-26T02:17:30.798Z,101256.50
2023-04-26T02:19:58.554Z,101256.91
2023-04-26T02:22:33.156Z,101256.88
2023-04-26T02:24:59.949Z,101256.03
2023-04-26T02:27:27.905Z,101264.31
2023-04-26T02:29:54.804Z,101249.25
2023-04-26T02:32:21.745Z,101244.53
2023-04-26T02:34:48.604Z,101238.97
2023-04-26T02:37:15.397Z,101235.66
2023-04-26T02:39:42.153Z,101236.28
2023-04-26T02:42:13.022Z,101238.38
2023-04-26T02:44:40.113Z,101241.47
2023-04-26T02:47:07.972Z,101234.25
2023-04-26T02:49:34.817Z,101231.34
2023-04-26T02:52:01.697Z,101241.06
2023-04-26T02:54:29.879Z,101243.09
2023-04-26T02:56:58.137Z,101251.72
2023-04-26T02:59:25.112Z,101256.28
2023-04-26T03:01:51.944Z,101259.75
2023-04-26T03:04:18.914Z,101249.44
2023-04-26T03:06:45.771Z,101253.13
2023-04-26T03:09:12.703Z,101256.69
2023-04-26T03:11:39.818Z,101259.38
2023-04-26T03:14:06.618Z,101257.69
2023-04-26T03:16:41.505Z,101253.16
2023-04-26T03:19:08.551Z,101251.94
2023-04-26T03:21:36.255Z,101244.53
2023-04-26T03:24:04.336Z,101231.13
2023-04-26T03:26:31.160Z,101225.53
2023-04-26T03:28:57.991Z,101231.13
2023-04-26T03:31:25.083Z,101229.25
2023-04-26T03:33:52.106Z,101222.81
2023-04-26T03:36:19.852Z,101229.00
2023-04-26T03:38:46.678Z,101219.91
2023-04-26T03:41:14.801Z,101220.53
2023-04-26T03:43:41.591Z,101228.56
2023-04-26T03:46:08.493Z,101219.09
2023-04-26T03:48:35.300Z,101216.41
2023-04-26T03:51:03.060Z,101206.50
2023-04-26T03:53:29.817Z,101214.78
2023-04-26T03:55:56.829Z,101227.97
2023-04-26T03:58:26.047Z,101230.84
2023-04-26T04:00:56.177Z,101235.38
2023-04-26T04:03:23.407Z,101239.47
2023-04-26T04:05:51.848Z,101240.09
2023-04-26T04:08:18.556Z,101244.00
2023-04-26T04:10:45.683Z,101235.75
2023-04-26T04:13:12.518Z,101239.25
2023-04-26T04:15:39.630Z,101233.88
2023-04-26T04:18:06.457Z,101244.41
2023-04-26T04:20:33.227Z,101242.97
2023-04-26T04:23:02.178Z,101235.53
2023-04-26T04:25:29.404Z,101242.56
2023-04-26T04:27:59.852Z,101240.94
2023-04-26T04:30:26.624Z,101240.72
2023-04-26T04:32:54.279Z,101235.38
2023-04-26T04:35:23.161Z,101241.19
2023-04-26T04:37:50.256Z,101240.34
2023-04-26T04:40:17.118Z,101238.91
2023-04-26T04:42:46.738Z,101244.72
2023-04-26T04:45:15.132Z,101240.38
2023-04-26T04:47:42.630Z,101245.31
2023-04-26T04:50:10.287Z,101247.81
2023-04-26T04:52:37.746Z,101248.66
2023-04-26T04:55:04.983Z,101254.00
2023-04-26T04:57:33.519Z,101257.31
2023-04-26T05:00:10.021Z,101256.28
2023-04-26T05:02:42.396Z,101253.41
2023-04-26T05:05:11.129Z,101259.41
2023-04-26T05:07:38.031Z,101260.22
2023-04-26T05:10:05.916Z,101262.72
2023-04-26T05:12:33.703Z,101273.03
2023-04-26T05:15:01.238Z,101275.94
2023-04-26T05:17:28.071Z,101275.75
2023-04-26T05:19:55.206Z,101284.03
2023-04-26T05:22:22.388Z,101279.91
2023-04-26T05:24:50.259Z,101282.19
2023-04-26T05:27:17.709Z,101285.50
2023-04-26T05:30:08.421Z,101285.72
2023-04-26T05:32:47.384Z,101297.25
2023-04-26T05:35:30.984Z,101297.91
2023-04-26T05:37:57.746Z,101299.97
2023-04-26T05:40:24.668Z,101302.88
2023-04-26T05:42:51.463Z,101303.72
2023-04-26T05:45:18.540Z,101312.59
2023-04-26T05:47:47.563Z,101308.66
2023-04-26T05:50:14.494Z,101316.72
2023-04-26T05:52:41.487Z,101327.88
2023-04-26T05:55:09.044Z,101330.56
2023-04-26T05:57:36.277Z,101326.44
2023-04-26T06:00:05.638Z,101324.81
2023-04-26T06:02:40.868Z,101332.47
2023-04-26T06:05:13.418Z,101327.91
2023-04-26T06:07:41.320Z,101332.25
2023-04-26T06:10:08.423Z,101322.94
2023-04-26T06:12:35.397Z,101329.34
2023-04-26T06:15:02.358Z,101344.84
2023-04-26T06:17:31.040Z,101338.69
2023-04-26T06:19:57.791Z,101342.38
2023-04-26T06:22:24.497Z,101339.28
2023-04-26T06:24:51.370Z,101342.16
2023-04-26T06:27:18.399Z,101355.41
2023-04-26T06:29:47.934Z,101353.31
2023-04-26T06:32:15.975Z,101348.59
2023-04-26T06:34:45.515Z,101349.19
2023-04-26T06:37:12.442Z,101353.53
2023-04-26T06:39:42.282Z,101352.88
2023-04-26T06:42:09.286Z,101351.19
2023-04-26T06:45:08.984Z,101347.41
2023-04-26T06:47:36.311Z,101349.88
2023-04-26T06:50:04.882Z,101350.91
2023-04-26T06:52:31.668Z,101354.19
2023-04-26T06:55:02.385Z,101350.38
2023-04-26T06:57:29.180Z,101355.50
2023-04-26T06:59:55.975Z,101349.44
2023-04-26T07:02:24.558Z,101347.50
2023-04-26T07:04:52.288Z,101348.69
2023-04-26T07:07:19.194Z,101348.59
2023-04-26T07:09:46.297Z,101354.13
2023-04-26T07:12:13.932Z,101349.72
2023-04-26T07:14:41.518Z,101342.16
2023-04-26T07:17:08.325Z,101347.09
2023-04-26T07:19:35.387Z,101348.09
2023-04-26T07:22:02.534Z,101361.31
2023-04-26T07:24:29.287Z,101352.38
2023-04-26T07:26:56.881Z,101353.34
2023-04-26T07:29:23.869Z,101343.88
2023-04-26T07:31:50.664Z,101342.78
2023-04-26T07:34:17.604Z,101343.53
2023-04-26T07:36:44.356Z,101340.72
2023-04-26T07:39:11.878Z,101349.03
2023-04-26T07:41:38.696Z,101343.91
2023-04-26T07:44:05.510Z,101342.56
2023-04-26T07:46:34.378Z,101343.91
2023-04-26T07:49:01.804Z,101345.47
2023-04-26T07:51:28.704Z,101354.94
2023-04-26T07:53:56.189Z,101353.19
2023-04-26T07:56:26.383Z,101356.03
2023-04-26T07:58:53.361Z,101354.97
2023-04-26T08:01:20.153Z,101350.16
2023-04-26T08:03:48.976Z,101352.88
2023-04-26T08:06:16.813Z,101346.66
2023-04-26T08:08:49.191Z,101346.19
2023-04-26T08:11:16.768Z,101357.25
2023-04-26T08:13:44.256Z,101356.34
2023-04-26T08:16:11.223Z,101355.88
2023-04-26T08:18:38.056Z,101354.94
2023-04-26T08:21:04.973Z,101357.44
2023-04-26T08:23:38.753Z,101353.41
2023-04-26T08:26:06.661Z,101363.66
2023-04-26T08:28:33.502Z,101361.75
2023-04-26T08:31:00.391Z,101364.41
2023-04-26T08:33:27.224Z,101365.00
2023-04-26T08:35:53.926Z,101371.06
2023-04-26T08:38:22.805Z,101371.06
2023-04-26T08:40:51.432Z,101374.88
2023-04-26T08:43:18.229Z,101376.78
2023-04-26T08:45:49.358Z,101375.28
2023-04-26T08:48:18.412Z,101374.63
2023-04-26T08:50:49.085Z,101392.16
2023-04-26T08:53:19.855Z,101397.50
2023-04-26T08:55:50.213Z,101389.63
2023-04-26T08:58:20.262Z,101396.47
2023-04-26T09:01:05.683Z,101400.16
2023-04-26T09:04:03.506Z,101401.03
2023-04-26T09:06:31.310Z,101396.31
2023-04-26T09:08:59.163Z,101401.16
2023-04-26T09:11:26.170Z,101399.88
2023-04-26T09:13:53.167Z,101411.41
2023-04-26T09:16:20.136Z,101409.69
2023-04-26T09:18:57.285Z,101408.41
2023-04-26T09:21:24.854Z,101412.66
2023-04-26T09:24:04.476Z,101421.75
2023-04-26T09:26:31.280Z,101411.59
2023-04-26T09:29:20.987Z,101412.44
2023-04-26T09:31:50.149Z,101412.66
2023-04-26T09:34:17.066Z,101413.81
2023-04-26T09:36:57.640Z,101415.34
2023-04-26T09:39:37.269Z,101418.28
2023-04-26T09:42:05.239Z,101422.28
2023-04-26T09:44:32.444Z,101430.19
2023-04-26T09:47:05.952Z,101433.50
2023-04-26T09:49:46.801Z,101427.03
2023-04-26T09:52:13.829Z,101435.84
2023-04-26T09:54:54.504Z,101444.59
2023-04-26T09:57:23.683Z,101440.06
2023-04-26T09:59:54.353Z,101445.41
2023-04-26T10:02:27.259Z,101445.06
2023-04-26T10:04:56.209Z,101448.44
2023-04-26T10:07:24.812Z,101440.63
2023-04-26T10:09:51.696Z,101443.19
2023-04-26T10:12:20.218Z,101444.25
2023-04-26T10:14:47.986Z,101435.94
2023-04-26T10:17:14.849Z,101438.09
2023-04-26T10:19:46.800Z,101443.25
2023-04-26T10:22:23.809Z,101448.34
2023-04-26T10:24:51.668Z,101449.00
2023-04-26T10:27:46.928Z,101451.31
2023-04-26T10:30:15.314Z,101442.22
2023-04-26T10:32:57.687Z,101438.88
2023-04-26T10:35:30.626Z,101436.09
2023-04-26T10:38:00.358Z,101441.72
2023-04-26T10:40:32.124Z,101437.28
2023-04-26T10:43:11.534Z,101441.63
2023-04-26T10:45:40.161Z,101442.81
2023-04-26T10:48:32.130Z,101443.56
2023-04-26T10:51:02.331Z,101439.69
2023-04-26T10:53:33.649Z,101435.59
2023-04-26T10:56:00.705Z,101435.84
2023-04-26T10:58:34.473Z,101433.66
2023-04-26T11:01:18.441Z,101432.69
2023-04-26T11:04:14.444Z,101426.69
2023-04-26T11:06:55.585Z,101425.53
2023-04-26T11:09:48.234Z,101427.66
2023-04-26T11:12:16.604Z,101417.69
2023-04-26T11:14:45.605Z,101423.56
2023-04-26T11:17:13.233Z,101410.72
2023-04-26T11:19:41.931Z,101410.47
2023-04-26T11:22:08.926Z,101422.16
2023-04-26T11:24:39.220Z,101413.91
2023-04-26T11:27:10.225Z,101400.09
2023-04-26T11:29:37.618Z,101404.22
2023-04-26T11:32:05.246Z,101399.13
2023-04-26T11:34:35.899Z,101403.78
2023-04-26T11:37:04.929Z,101394.72
2023-04-26T11:39:32.833Z,101390.25
2023-04-26T11:42:10.794Z,101392.50
2023-04-26T11:44:38.430Z,101392.50
2023-04-26T11:47:06.773Z,101383.88
2023-04-26T11:49:36.402Z,101388.69
2023-04-26T11:52:07.353Z,101374.81
2023-04-26T11:54:37.872Z,101381.88
2023-04-26T11:57:18.426Z,101382.69
2023-04-26T11:59:46.891Z,101379.53
2023-04-26T12:02:14.355Z,101380.13
2023-04-26T12:04:41.705Z,101373.31
2023-04-26T12:07:09.457Z,101381.66
2023-04-26T12:09:42.289Z,101373.31
2023-04-26T12:12:09.215Z,101372.13
2023-04-26T12:14:40.089Z,101365.91
2023-04-26T12:17:09.684Z,101362.72
2023-04-26T12:19:38.274Z,101356.47
2023-04-26T12:22:08.810Z,101364.34
2023-04-26T12:24:37.405Z,101367.19
2023-04-26T12:27:08.545Z,101371.78
2023-04-26T12:29:35.729Z,101372.38
2023-04-26T12:32:03.246Z,101368.38
2023-04-26T12:34:31.011Z,101363.97
2023-04-26T12:36:57.940Z,101362.56
2023-04-26T12:39:24.702Z,101360.34
2023-04-26T12:41:51.568Z,101356.34
2023-04-26T12:44:20.379Z,101371.53
2023-04-26T12:46:48.393Z,101369.16
2023-04-26T12:49:15.298Z,101369.06
2023-04-26T12:51:42.055Z,101363.88
2023-04-26T12:54:09.317Z,101365.88
2023-04-26T12:56:40.758Z,101360.97
2023-04-26T12:59:07.640Z,101363.88
2023-04-26T13:01:34.595Z,101355.78
2023-04-26T13:04:06.027Z,101348.13
2023-04-26T13:06:33.637Z,101360.88
2023-04-26T13:09:00.586Z,101363.47
2023-04-26T13:11:27.440Z,101357.03
2023-04-26T13:13:54.809Z,101361.53
2023-04-26T13:16:21.957Z,101364.13
2023-04-26T13:18:48.744Z,101355.56
2023-04-26T13:21:17.582Z,101366.34
2023-04-26T13:23:46.278Z,101354.81
2023-04-26T13:26:14.948Z,101351.53
2023-04-26T13:28:41.962Z,101347.63
2023-04-26T13:31:08.987Z,101353.44
2023-04-26T13:33:36.063Z,101348.13
2023-04-26T13:36:02.890Z,101339.78
2023-04-26T13:38:32.839Z,101350.59
2023-04-26T13:41:02.803Z,101338.47
2023-04-26T13:43:29.596Z,101338.94
2023-04-26T13:45:56.874Z,101334.47
2023-04-26T13:48:26.720Z,101331.53
2023-04-26T13:50:53.635Z,101334.84
2023-04-26T13:53:20.538Z,101337.06
2023-04-26T13:55:47.193Z,101332.50
2023-04-26T13:58:14.327Z,101332.81
2023-04-26T14:00:41.947Z,101327.53
2023-04-26T14:03:11.568Z,101325.03
2023-04-26T14:05:38.594Z,101321.03
2023-04-26T14:08:06.028Z,101319.41
2023-04-26T14:10:35.760Z,101318.69
2023-04-26T14:13:02.501Z,101315.38
2023-04-26T14:15:29.277Z,101321.84
2023-04-26T14:17:59.049Z,101313.13
2023-04-26T14:20:25.917Z,101301.38
2023-04-26T14:22:52.652Z,101303.97
2023-04-26T14:25:19.506Z,101298.69
2023-04-26T14:27:49.113Z,101301.13
2023-04-26T14:30:16.641Z,101293.25
2023-04-26T14:32:43.545Z,101298.69
2023-04-26T14:35:10.591Z,101294.97
2023-04-26T14:37:37.829Z,101294.19
2023-04-26T14:40:06.416Z,101294.44
2023-04-26T14:42:33.192Z,101278.44
2023-04-26T14:45:00.555Z,101274.66
2023-04-26T14:47:27.475Z,101283.75
2023-04-26T14:49:54.308Z,101281.50
2023-04-26T14:52:21.599Z,101275.81
2023-04-26T14:54:48.359Z,101272.38
2023-04-26T14:57:15.132Z,101280.34
2023-04-26T14:59:42.321Z,101269.78
2023-04-26T15:02:09.164Z,101268.97
2023-04-26T15:04:38.126Z,101270.13
2023-04-26T15:07:05.231Z,101264.41
2023-04-26T15:09:33.328Z,101269.94
2023-04-26T15:12:00.263Z,101274.84
2023-04-26T15:14:27.210Z,101268.97
2023-04-26T15:16:54.646Z,101258.50
2023-04-26T15:19:21.938Z,101259.22
2023-04-26T15:21:49.358Z,101256.03
2023-04-26T15:24:16.327Z,101260.41
2023-04-26T15:26:43.051Z,101269.22
2023-04-26T15:29:09.783Z,101265.94
2023-04-26T15:31:37.050Z,101262.19
2023-04-26T15:34:03.902Z,101265.91
2023-04-26T15:36:30.761Z,101251.41
2023-04-26T15:38:57.680Z,101256.97
2023-04-26T15:41:24.429Z,101250.16
2023-04-26T15:43:57.045Z,101240.03
2023-04-26T15:46:23.832Z,101241.19
2023-04-26T15:48:50.570Z,101234.97
2023-04-26T15:51:17.431Z,101249.47
2023-04-26T15:53:44.266Z,101244.88
2023-04-26T15:56:15.569Z,101253.00
2023-04-26T15:58:47.758Z,101247.69
2023-04-26T16:01:15.247Z,101243.34
2023-04-26T16:03:45.574Z,101242.53
2023-04-26T16:06:14.132Z,101238.38
2023-04-26T16:08:41.136Z,101229.22
2023-04-26T16:11:08.030Z,101237.44
2023-04-26T16:13:34.888Z,101243.91
2023-04-26T16:16:01.732Z,101246.88
2023-04-26T16:18:28.549Z,101255.09
2023-04-26T16:21:07.351Z,101258.84
2023-04-26T16:23:34.217Z,101258.34
2023-04-26T16:26:01.515Z,101250.91
2023-04-26T16:28:28.386Z,101249.72
2023-04-26T16:30:55.914Z,101261.16
2023-04-26T16:33:23.388Z,101250.88
2023-04-26T16:35:57.368Z,101246.19
2023-04-26T16:38:24.248Z,101251.59
2023-04-26T16:40:57.658Z,101250.72
2023-04-26T16:43:31.999Z,101249.47
2023-04-26T16:46:06.993Z,101253.28
2023-04-26T16:48:35.506Z,101250.50
2023-04-26T16:51:07.171Z,101251.53
2023-04-26T16:53:35.296Z,101252.41
2023-04-26T16:56:03.090Z,101254.84
2023-04-26T16:58:30.057Z,101255.69
2023-04-26T17:00:56.856Z,101248.16
2023-04-26T17:03:24.735Z,101251.31
2023-04-26T17:05:51.930Z,101247.81
2023-04-26T17:08:19.890Z,101245.44
2023-04-26T17:10:47.211Z,101245.69
2023-04-26T17:13:14.915Z,101245.94
2023-04-26T17:15:42.657Z,101250.63
2023-04-26T17:18:10.147Z,101260.16
2023-04-26T17:20:37.307Z,101251.56
2023-04-26T17:23:04.419Z,101247.94
2023-04-26T17:25:31.314Z,101256.50
2023-04-26T17:27:58.396Z,101249.44
2023-04-26T17:30:25.275Z,101251.22
2023-04-26T17:32:52.078Z,101252.84
2023-04-26T17:35:18.913Z,101249.59
2023-04-26T17:37:50.427Z,101254.16
2023-04-26T17:40:18.659Z,101258.16
2023-04-26T17:42:46.524Z,101264.63
2023-04-26T17:45:14.496Z,101268.28
2023-04-26T17:47:42.918Z,101265.00
2023-04-26T17:50:10.073Z,101257.69
2023-04-26T17:52:37.519Z,101253.00
2023-04-26T17:55:06.588Z,101265.59
2023-04-26T17:57:33.304Z,101264.50
2023-04-26T17:59:59.990Z,101274.28
2023-04-26T18:02:26.934Z,101266.25
2023-04-26T18:04:55.085Z,101267.88
2023-04-26T18:07:21.992Z,101272.84
2023-04-26T18:09:49.938Z,101274.13
2023-04-26T18:12:16.677Z,101276.47
2023-04-26T18:14:46.203Z,101275.50
2023-04-26T18:17:13.966Z,101274.09
2023-04-26T18:19:41.938Z,101274.81
2023-04-26T18:22:08.824Z,101283.38
2023-04-26T18:24:35.676Z,101282.53
2023-04-26T18:27:02.759Z,101280.63
2023-04-26T18:29:30.485Z,101289.41
2023-04-26T18:31:57.386Z,101296.47
2023-04-26T18:34:24.519Z,101291.56
2023-04-26T18:36:51.489Z,101287.59
2023-04-26T18:39:18.388Z,101280.34
2023-04-26T18:41:45.442Z,101280.88
2023-04-26T18:44:14.987Z,101276.22
2023-04-26T18:46:43.147Z,101295.09
2023-04-26T18:49:10.135Z,101289.66
2023-04-26T18:51:39.808Z,101293.53
2023-04-26T18:54:06.548Z,101293.09
2023-04-26T18:56:33.303Z,101295.41
2023-04-26T18:59:00.049Z,101310.34
2023-04-26T19:01:29.182Z,101311.81
2023-04-26T19:03:56.225Z,101312.91
2023-04-26T19:06:22.997Z,101317.13
2023-04-26T19:08:49.749Z,101324.28
2023-04-26T19:11:16.587Z,101329.69
2023-04-26T19:13:43.429Z,101333.09
2023-04-26T19:16:11.368Z,101336.47
2023-04-26T19:18:40.472Z,101350.53
2023-04-26T19:21:08.180Z,101357.28
2023-04-26T19:23:35.827Z,101350.91
2023-04-26T19:26:12.355Z,101355.88
2023-04-26T19:28:39.305Z,101351.38
2023-04-26T19:31:06.389Z,101358.44
2023-04-26T19:33:34.807Z,101353.47
2023-04-26T19:36:01.601Z,101352.63
2023-04-26T19:38:28.830Z,101360.72
2023-04-26T19:40:55.745Z,101356.97
2023-04-26T19:43:22.611Z,101367.97
2023-04-26T19:45:49.464Z,101372.09
2023-04-26T19:48:16.299Z,101381.03
2023-04-26T19:50:47.614Z,101372.53
2023-04-26T19:53:19.126Z,101377.06
2023-04-26T19:55:46.081Z,101388.25
2023-04-26T19:58:12.915Z,101388.00
2023-04-26T20:00:40.557Z,101390.72
2023-04-26T20:03:07.761Z,101391.16
2023-04-26T20:05:34.895Z,101390.75
2023-04-26T20:08:02.010Z,101386.78
2023-04-26T20:10:32.467Z,101391.16
2023-04-26T20:13:00.694Z,101398.16
2023-04-26T20:15:27.977Z,101401.69
2023-04-26T20:17:55.159Z,101405.84
2023-04-26T20:20:22.151Z,101406.44
2023-04-26T20:22:48.983Z,101415.56
2023-04-26T20:25:15.937Z,101408.09
2023-04-26T20:27:42.842Z,101412.84
2023-04-26T20:30:10.104Z,101410.78
2023-04-26T20:32:36.939Z,101411.00
2023-04-26T20:35:04.811Z,101421.19
2023-04-26T20:37:31.950Z,101426.41
2023-04-26T20:39:58.814Z,101420.38
2023-04-26T20:42:25.941Z,101428.88
2023-04-26T20:44:52.763Z,101428.47
2023-04-26T20:47:19.538Z,101427.66
2023-04-26T20:49:46.315Z,101432.81
2023-04-26T20:52:13.129Z,101434.69
2023-04-26T20:54:40.044Z,101436.31
2023-04-26T20:57:06.948Z,101445.84
2023-04-26T20:59:33.773Z,101450.41
2023-04-26T21:02:01.389Z,101449.59
2023-04-26T21:04:28.668Z,101440.06
2023-04-26T21:06:55.640Z,101450.44
2023-04-26T21:09:22.484Z,101444.00
2023-04-26T21:11:52.452Z,101442.78
2023-04-26T21:14:19.185Z,101442.56
2023-04-26T21:16:48.105Z,101443.38
2023-04-26T21:19:14.931Z,101443.81
2023-04-26T21:21:41.746Z,101446.28
2023-04-26T21:24:08.673Z,101440.47
2023-04-26T21:26:35.724Z,101438.81
2023-04-26T21:29:02.501Z,101435.09
2023-04-26T21:31:29.476Z,101429.47
2023-04-26T21:33:56.483Z,101423.50
2023-04-26T21:36:23.193Z,101426.41
2023-04-26T21:38:52.678Z,101430.50
2023-04-26T21:41:19.905Z,101425.13
2023-04-26T21:43:46.694Z,101429.69
2023-04-26T21:46:13.594Z,101428.88
2023-04-26T21:48:40.476Z,101433.41
2023-04-26T21:51:09.876Z,101438.81
2023-04-26T21:53:36.626Z,101437.19
2023-04-26T21:56:05.709Z,101435.53
2023-04-26T21:58:32.552Z,101439.25
2023-04-26T22:01:15.264Z,101441.31
2023-04-26T22:03:42.700Z,101438.19
2023-04-26T22:06:10.140Z,101436.31
2023-04-26T22:08:37.022Z,101437.16
2023-04-26T22:11:03.883Z,101443.38
2023-04-26T22:13:31.456Z,101434.69
2023-04-26T22:16:01.108Z,101439.00
2023-04-26T22:18:32.484Z,101444.63
2023-04-26T22:20:59.199Z,101444.44
2023-04-26T22:23:25.958Z,101439.88
2023-04-26T22:25:53.857Z,101444.63
2023-04-26T22:28:20.856Z,101455.00
2023-04-26T22:30:48.387Z,101443.22
2023-04-26T22:33:15.214Z,101456.25
2023-04-26T22:35:42.085Z,101447.56
2023-04-26T22:38:09.981Z,101449.06
2023-04-26T22:40:37.234Z,101453.16
2023-04-26T22:43:04.026Z,101454.81
2023-04-26T22:45:30.992Z,101452.53
2023-04-26T22:47:57.822Z,101452.94
2023-04-26T22:50:24.909Z,101452.94
2023-04-26T22:52:51.652Z,101457.94
2023-04-26T22:55:18.670Z,101451.47
2023-04-26T22:57:46.674Z,101460.63
2023-04-26T23:00:16.969Z,101463.09
2023-04-26T23:02:44.000Z,101467.91
2023-04-26T23:05:13.775Z,101474.31
2023-04-26T23:07:40.741Z,101473.06
2023-04-26T23:10:11.103Z,101473.50
2023-04-26T23:12:38.253Z,101481.56
2023-04-26T23:15:06.088Z,101482.59
2023-04-26T23:17:34.178Z,101485.50
2023-04-26T23:20:01.357Z,101485.50
2023-04-26T23:22:28.306Z,101476.00
2023-04-26T23:24:55.514Z,101479.28
2023-04-26T23:27:24.369Z,101486.75
2023-04-26T23:29:51.729Z,101479.28
2023-04-26T23:32:20.625Z,101483.03
2023-04-26T23:34:47.469Z,101477.03
2023-04-26T23:37:14.339Z,101467.91
2023-04-26T23:39:41.102Z,101478.25
2023-04-26T23:42:07.938Z,101474.16
2023-04-26T23:44:34.688Z,101481.38
2023-04-26T23:47:01.654Z,101484.50
2023-04-26T23:49:28.562Z,101482.84
2023-04-26T23:51:55.467Z,101479.31
2023-04-26T23:54:22.335Z,101484.06
2023-04-26T23:56:49.062Z,101477.66
2023-04-26T23:59:16.863Z,101476.63
